Sitka, AK

9:13 AM AKST on February 10, 2016 (GMT -0900)
Sitka Rocky Gutierrez | | Change Station
CLOSE
Current Station
Airport
Location: Sitka,
Elevation: 20 ft
Nearby Weather Stations

Elev 20 ft 57.05 °N, 135.36 °W | Updated 20 minutes ago

Overcast
Overcast
46 °F
Feels Like 44 °F
N
5
Wind Variable Wind from NW

Today
High -- | Low -- °F
--% Chance of Precip.
Yesterday
High -- | Low -- °F
Precip. -- in
Pressure 29.67 in
Visibility 10.0 miles
Clouds Overcast 4200 ft
Windchill 44 °F
Dew Point 44 °F
Humidity 93%
Rainfall 0.03 in
Snow Depth Not available.
7:41 AM 4:50 PM
Waxing Crescent, 6% visible
METAR PASI 101753Z 32004KT 10SM OVC042 08/07 A2967 RMK AO2 SLP047 60002 T00780067 10078 20072 51004
Pressure 29.67 in
Visibility 10.0 miles
Clouds Overcast 4200 ft
Windchill 44 °F
Dew Point 44 °F
Humidity 93%
Rainfall 0.03 in
Snow Depth Not available.
7:41 AM 4:50 PM
Waxing Crescent, 6% visible
METAR PASI 101753Z 32004KT 10SM OVC042 08/07 A2967 RMK AO2 SLP047 60002 T00780067 10078 20072 51004

10-Day Weather Forecast

Almanac

Astronomy

Feb. 10, 2016 Rise Set
Actual Time
Civil Twilight
Nautical Twilight
Astronomical Twilight
Moon
Length of Visible Light
Length of Day
Tomorrow will be .
, % of the Moon is Illuminated

Today's Extremes

State Highs State Lows

Community

WunderPhotos

Upload Photos

1,891,906 photos uploaded!

WunderBlog® & News

Nearby

Air Quality

  Air Quality AQ Index Pollutant
Not available.

Snow Depth

Station Depth Elevation

Earthquake Activity

City Distance Mag. Time & Date
Minimum magnitude displayed is 2.5.

Coastal Water Temperatures

Place Temperature

Stations

Nearby Weather Stations

Station Location Temp. Windchill Dew Point Humidity Wind Precip. Elev Updated Type
                   

Watches & Warnings

There are currently no watches in effect.